DW8482 Tortoreto Alto IT current weather conditions

sailwx.info

Wind from 138

Air temperature 15.0° C
Dewpoint 11.2° C

Last reported at 2015-Mar-31 07:47 UTC.
Time now 2015-Mar-31 08:28 UTC

Location: N 42°48' E 013°54'.
View on Google Maps.

See reports from other nearby stations

  
Tides and Currents Weather Stations Pressure Air Temp Water Temp Dewpoint Dewpoint Depression Visibility Wind Speed Wind Dir Waves Ship Positions
date/time (UTC)wind fromknots sea level pressurealtimeterstation pressurevisibilityair tempwater tempwave heightnotes
2015-Mar-31 07:47 138 15.0
2015-Mar-31 07:42 099 15.0
2015-Mar-31 07:37 140 15.0
2015-Mar-31 07:32 140 15.0
2015-Mar-31 07:27 140 14.4
2015-Mar-31 07:22 068 2 gusting 4 15.0
2015-Mar-31 07:17 048 1 gusting 5 14.4
2015-Mar-31 07:12 113 13.9
2015-Mar-31 07:07 094 13.9
2015-Mar-31 07:02 111 13.9
2015-Mar-31 06:57 085 13.3
2015-Mar-31 06:52 061 13.3
2015-Mar-31 06:47 110 2 gusting 4 13.3
2015-Mar-31 06:42 155 13.9
2015-Mar-31 06:37 172 13.9
2015-Mar-31 06:32 137 13.3
2015-Mar-31 06:27 164 13.3
2015-Mar-31 06:22 135 0 gusting 4 13.3
2015-Mar-31 06:17 123 4 gusting 5 13.3
2015-Mar-31 06:12 084 13.3
2015-Mar-31 06:07 090 12.8
2015-Mar-31 06:02 061 12.8
2015-Mar-31 05:57 093 12.8
2015-Mar-31 05:52 116 2 gusting 5 12.8
2015-Mar-31 05:47 096 2 gusting 5 12.2
2015-Mar-31 05:42 077 2 gusting 5 12.2
2015-Mar-31 05:37 082 4 gusting 4 12.2
2015-Mar-31 05:32 079 2 gusting 4 12.2
2015-Mar-31 05:27 065 2 gusting 3 12.2
2015-Mar-31 05:22 055 11.7
2015-Mar-31 05:17 056 11.7
2015-Mar-31 05:12 055 11.7
2015-Mar-31 05:07 055 1 gusting 4 11.7
2015-Mar-31 05:02 055 2 gusting 6 11.7
2015-Mar-31 04:57 067 1 gusting 6 11.7
2015-Mar-31 04:52 051 12.2
2015-Mar-31 04:47 051 3 gusting 7 12.2
2015-Mar-31 04:42 055 0 gusting 6 12.8
2015-Mar-31 04:37 074 1 gusting 6 12.8
2015-Mar-31 04:32 050 1 gusting 5 13.3
2015-Mar-31 04:27 051 0 gusting 1 13.3
2015-Mar-31 04:22 062 0 gusting 2 13.3
2015-Mar-31 04:17 017 13.3
2015-Mar-31 04:12 021 0 gusting 4 13.3
2015-Mar-31 04:07 011 2 gusting 2 13.3
2015-Mar-31 04:02 005 0 gusting 1 13.3
2015-Mar-31 03:57 346 0 gusting 5 13.3
2015-Mar-31 03:52 005 0 gusting 2 13.9
2015-Mar-31 03:47 333 0 gusting 5 14.4
2015-Mar-31 03:42 340 0 gusting 5 15.0
2015-Mar-31 03:37 331 0 gusting 5 15.0
2015-Mar-31 03:32 338 15.0
2015-Mar-31 03:27 286 15.0
2015-Mar-31 03:22 317 0 gusting 0 15.0
2015-Mar-31 03:17 299 15.0
2015-Mar-31 03:12 292 15.6
2015-Mar-31 03:07 277 15.6
2015-Mar-31 03:02 310 15.6
2015-Mar-31 02:57 295 15.6
2015-Mar-31 02:52 345 0 gusting 6 16.1
2015-Mar-31 02:47 264 1 gusting 6 16.1
2015-Mar-31 02:42 313 16.1
2015-Mar-31 02:37 271 0 gusting 5 16.1
2015-Mar-31 02:32 288 0 gusting 6 16.1
2015-Mar-31 02:27 292 16.1
2015-Mar-31 02:22 280 0 gusting 6 16.1
2015-Mar-31 02:17 264 0 gusting 6 16.1
2015-Mar-31 02:12 314 16.1
2015-Mar-31 02:07 280 16.1
2015-Mar-31 02:02 299 15.6
2015-Mar-31 01:57 311 15.6
2015-Mar-31 01:52 292 15.6
2015-Mar-31 01:47 292 15.6
2015-Mar-31 01:42 292 15.6
2015-Mar-31 01:37 292 15.6
2015-Mar-31 01:32 292 15.6
2015-Mar-31 01:27 292 16.1
2015-Mar-31 01:22 292 16.1
2015-Mar-31 01:17 292 16.7
2015-Mar-31 01:12 306 0 gusting 5 16.7
2015-Mar-31 01:07 275 0 gusting 10 16.7
2015-Mar-31 01:02 272 4 gusting 11 16.7
2015-Mar-31 00:57 293 5 gusting 11 16.7
2015-Mar-31 00:52 298 13 gusting 13 16.1
2015-Mar-31 00:47 286 5 gusting 12 16.1
2015-Mar-31 00:42 329 10 gusting 13 16.7
2015-Mar-31 00:37 337 8 gusting 12 17.2
2015-Mar-31 00:32 275 7 gusting 14 17.2
2015-Mar-31 00:27 301 14 gusting 14 17.2
2015-Mar-31 00:22 285 6 gusting 14 16.7
2015-Mar-31 00:17 278 6 gusting 12 16.7
2015-Mar-31 00:12 288 6 gusting 12 16.7
2015-Mar-31 00:07 276 6 gusting 10 17.2
2015-Mar-31 00:02 304 9 gusting 15 17.2
2015-Mar-30 23:57 280 11 gusting 15 17.2
2015-Mar-30 23:52 275 5 gusting 13 16.7
2015-Mar-30 23:47 278 1 gusting 13 16.7
2015-Mar-30 23:42 273 2 gusting 13 16.7
2015-Mar-30 23:37 267 11 gusting 13 16.7
2015-Mar-30 23:32 303 4 gusting 12 16.7
2015-Mar-30 23:27 280 1 gusting 11 16.1
2015-Mar-30 23:22 257 16.1
2015-Mar-30 23:17 267 1 gusting 8 16.1
2015-Mar-30 23:12 300 0 gusting 8 15.6
2015-Mar-30 23:07 315 4 gusting 5 15.6
2015-Mar-30 23:02 282 3 gusting 6 15.6
2015-Mar-30 22:57 287 0 gusting 6 15.6
2015-Mar-30 22:52 272 0 gusting 5 15.0
2015-Mar-30 22:47 248 0 gusting 6 15.0
2015-Mar-30 22:42 265 3 gusting 6 15.0
2015-Mar-30 22:37 290 2 gusting 6 15.0
2015-Mar-30 22:32 261 3 gusting 6 14.4
2015-Mar-30 22:27 239 0 gusting 7 14.4
2015-Mar-30 22:22 257 14.4
2015-Mar-30 22:17 271 1 gusting 6 15.0
2015-Mar-30 22:12 244 3 gusting 4 15.0
2015-Mar-30 22:07 250 4 gusting 5 15.0
2015-Mar-30 22:02 248 2 gusting 2 15.0
2015-Mar-30 21:57 248 15.0
2015-Mar-30 21:52 242 4 gusting 5 15.0
2015-Mar-30 21:47 240 3 gusting 4 15.0
2015-Mar-30 21:42 243 0 gusting 4 15.0
2015-Mar-30 21:37 256 2 gusting 3 14.4
2015-Mar-30 21:32 261 15.0
2015-Mar-30 21:27 215 14.4
2015-Mar-30 21:22 215 14.4
2015-Mar-30 21:17 215 14.4
2015-Mar-30 21:12 227 14.4
2015-Mar-30 21:07 227 14.4
2015-Mar-30 21:02 219 13.9
2015-Mar-30 20:57 248 2 gusting 5 13.9
2015-Mar-30 20:52 236 4 gusting 5 13.9
2015-Mar-30 20:47 243 4 gusting 5 13.9
2015-Mar-30 20:42 228 2 gusting 6 13.9
2015-Mar-30 20:37 242 3 gusting 5 14.4
2015-Mar-30 20:32 239 3 gusting 6 14.4
2015-Mar-30 20:27 243 3 gusting 5 13.9
2015-Mar-30 20:22 246 5 gusting 6 13.9
2015-Mar-30 20:17 236 5 gusting 5 13.9
2015-Mar-30 20:12 236 4 gusting 5 13.9
2015-Mar-30 20:07 253 4 gusting 6 14.4
2015-Mar-30 20:02 225 4 gusting 6 13.9
2015-Mar-30 19:57 215 3 gusting 6 13.9
2015-Mar-30 19:52 215 3 gusting 6 13.9
2015-Mar-30 19:47 223 5 gusting 6 13.9
2015-Mar-30 19:42 219 3 gusting 6 13.9
2015-Mar-30 19:37 220 3 gusting 5 13.9
2015-Mar-30 19:32 200 4 gusting 5 13.9
2015-Mar-30 19:27 213 3 gusting 6 13.9
2015-Mar-30 19:22 204 4 gusting 5 13.9
2015-Mar-30 19:17 212 1 gusting 2 13.9
2015-Mar-30 19:12 201 13.3
2015-Mar-30 19:07 139 13.3
2015-Mar-30 19:02 135 13.9
2015-Mar-30 18:57 135 13.9
2015-Mar-30 18:52 135 0 gusting 3 13.9
2015-Mar-30 18:47 136 13.9
2015-Mar-30 18:42 132 4 gusting 5 13.9
2015-Mar-30 18:37 139 13.9
2015-Mar-30 18:32 126 0 gusting 2 13.9
2015-Mar-30 18:27 109 13.9
2015-Mar-30 18:22 102 0 gusting 5 13.9
2015-Mar-30 18:17 112 2 gusting 5 13.9
2015-Mar-30 18:12 116 0 gusting 5 13.3
2015-Mar-30 18:07 079 13.3
2015-Mar-30 18:02 117 13.3
2015-Mar-30 17:57 208 13.3
2015-Mar-30 17:52 140 1 gusting 1 13.3
2015-Mar-30 17:47 128 13.3
2015-Mar-30 17:42 124 13.3
2015-Mar-30 17:37 134 13.3
2015-Mar-30 17:32 103 13.3
2015-Mar-30 17:27 098 13.3
2015-Mar-30 17:22 082 1 gusting 5 13.3
2015-Mar-30 17:17 101 2 gusting 6 13.9
2015-Mar-30 17:12 147 2 gusting 3 13.9
2015-Mar-30 17:07 063 13.9
2015-Mar-30 17:02 142 13.9
2015-Mar-30 16:57 137 3 gusting 6 14.4
2015-Mar-30 16:52 123 14.4
2015-Mar-30 16:47 091 14.4
2015-Mar-30 16:42 130 6 gusting 6 15.0
2015-Mar-30 16:37 122 3 gusting 4 15.0
2015-Mar-30 16:32 117 0 gusting 5 15.0
2015-Mar-30 16:27 111 4 gusting 7 15.0
2015-Mar-30 16:22 139 4 gusting 6 15.0
2015-Mar-30 16:17 106 15.0
2015-Mar-30 16:12 086 0 gusting 6 15.6
2015-Mar-30 16:07 132 2 gusting 4 15.6
2015-Mar-30 16:02 137 1 gusting 6 15.6
2015-Mar-30 15:57 091 4 gusting 5 15.6
2015-Mar-30 15:52 101 5 gusting 6 15.6
2015-Mar-30 15:47 044 15.6
2015-Mar-30 15:42 093 5 gusting 8 15.6
2015-Mar-30 15:37 104 15.6
2015-Mar-30 15:32 114 3 gusting 6 15.6
2015-Mar-30 15:27 110 1 gusting 8 15.6
2015-Mar-30 15:22 075 15.6
2015-Mar-30 15:17 112 3 gusting 5 15.0
2015-Mar-30 15:12 053 1 gusting 4 15.6
2015-Mar-30 15:07 072 15.0
2015-Mar-30 15:02 099 0 gusting 4 15.0
2015-Mar-30 14:57 076 15.6
2015-Mar-30 14:52 112 1 15.0
2015-Mar-30 14:47 053 15.0
2015-Mar-30 14:42 057 1 gusting 6 15.0
2015-Mar-30 14:37 061 3 gusting 7 15.6
2015-Mar-30 14:32 079 6 gusting 6 15.6
2015-Mar-30 14:27 079 6 gusting 7 15.6
2015-Mar-30 14:22 078 2 gusting 7 15.6
2015-Mar-30 14:17 100 6 gusting 7 15.6
2015-Mar-30 14:12 070 6 gusting 7 15.6
2015-Mar-30 14:07 057 2 gusting 7 16.1
2015-Mar-30 14:02 056 3 gusting 6 16.7
2015-Mar-30 13:57 052 3 gusting 8 16.1
2015-Mar-30 13:52 041 2 gusting 8 16.1
2015-Mar-30 13:47 063 6 gusting 9 16.1
2015-Mar-30 13:42 053 7 gusting 8 16.1
2015-Mar-30 13:37 067 6 gusting 8 16.1
2015-Mar-30 13:32 046 6 gusting 7 16.1
2015-Mar-30 13:27 043 6 gusting 11 16.1
2015-Mar-30 13:22 051 9 gusting 9 16.1
2015-Mar-30 13:17 049 4 gusting 9 15.6
2015-Mar-30 13:12 072 6 gusting 10 15.6
2015-Mar-30 13:07 061 7 gusting 9 15.6
2015-Mar-30 13:02 076 7 gusting 11 15.6
2015-Mar-30 12:57 086 5 gusting 11 15.6
2015-Mar-30 12:52 086 6 gusting 9 15.6
2015-Mar-30 12:47 051 6 gusting 11 15.6
2015-Mar-30 12:42 080 8 gusting 9 15.6
2015-Mar-30 12:37 068 6 gusting 9 16.1
2015-Mar-30 12:32 057 4 gusting 9 16.1
2015-Mar-30 12:27 048 7 gusting 8 16.7
2015-Mar-30 12:22 049 6 gusting 10 16.7
2015-Mar-30 12:17 044 6 gusting 10 16.1
2015-Mar-30 12:12 055 4 gusting 9 16.1
2015-Mar-30 12:07 065 6 gusting 8 16.7
2015-Mar-30 12:02 066 2 gusting 7 16.1
2015-Mar-30 11:57 055 7 gusting 7 16.7
2015-Mar-30 11:52 049 5 gusting 9 16.7
2015-Mar-30 11:47 057 8 gusting 8 16.7
2015-Mar-30 11:42 063 3 gusting 9 16.1
2015-Mar-30 11:37 046 4 gusting 8 16.1
2015-Mar-30 11:32 061 4 gusting 8 16.1
2015-Mar-30 11:27 059 4 gusting 8 16.1
2015-Mar-30 11:22 067 6 gusting 8 16.1
2015-Mar-30 11:17 058 6 gusting 10 16.1
2015-Mar-30 11:12 061 6 gusting 9 16.1
2015-Mar-30 11:07 053 5 gusting 11 16.1
2015-Mar-30 11:02 067 10 gusting 10 16.1
2015-Mar-30 10:57 065 7 gusting 10 16.7
2015-Mar-30 10:52 028 7 gusting 11 16.1
2015-Mar-30 10:47 057 1 gusting 12 16.1
2015-Mar-30 10:42 033 6 gusting 12 16.1
2015-Mar-30 10:37 037 4 gusting 13 16.1
2015-Mar-30 10:32 034 7 gusting 13 15.6
2015-Mar-30 10:27 058 7 gusting 12 16.1
2015-Mar-30 10:22 061 8 gusting 13 16.1
2015-Mar-30 10:17 033 8 gusting 12 16.1
2015-Mar-30 10:12 044 12 gusting 12 16.1
2015-Mar-30 10:07 042 10 gusting 13 16.1
2015-Mar-30 10:02 017 11 gusting 12 15.6
2015-Mar-30 09:57 042 6 gusting 12 15.6
2015-Mar-30 09:52 066 10 gusting 13 16.1
2015-Mar-30 09:47 026 7 gusting 13 15.6
2015-Mar-30 09:42 044 9 gusting 13 15.6
2015-Mar-30 09:37 047 6 gusting 10 15.6
2015-Mar-30 09:32 032 8 gusting 13 15.6
2015-Mar-30 09:27 039 9 gusting 13 15.6
2015-Mar-30 09:22 030 6 gusting 12 15.6
2015-Mar-30 09:17 053 8 gusting 12 15.6
2015-Mar-30 09:12 040 3 gusting 10 15.6
2015-Mar-30 09:07 040 6 gusting 8 15.6
2015-Mar-30 09:02 005 6 gusting 9 15.0
2015-Mar-30 08:57 051 6 gusting 8 15.0
2015-Mar-30 08:52 051 4 gusting 8 15.6
2015-Mar-30 08:47 019 7 gusting 9 15.6
2015-Mar-30 08:42 005 0 gusting 10 16.1
2015-Mar-30 08:37 030 6 gusting 7 15.6
2015-Mar-30 08:32 026 3 gusting 11 15.6
2015-Mar-30 08:27 032 10 gusting 11 15.6
2015-Mar-30 08:22 028 3 gusting 13 15.6
2015-Mar-30 08:17 017 5 gusting 14 15.6
2015-Mar-30 08:12 028 7 gusting 13 15.6
2015-Mar-30 08:07 355 5 gusting 8 15.0
2015-Mar-30 08:02 011 3 gusting 12 15.0
2015-Mar-30 07:57 030 10 gusting 12 15.6
2015-Mar-30 07:52 046 15.0
2015-Mar-30 07:47 015 5 gusting 6 15.0
2015-Mar-30 07:42 025 2 gusting 5 15.0
2015-Mar-30 07:37 014 0 gusting 3 15.0
2015-Mar-30 07:32 338 15.0
2015-Mar-30 07:27 076 14.4
2015-Mar-30 07:22 337 14.4
2015-Mar-30 07:17 292 13.9
2015-Mar-30 07:12 304 13.9
2015-Mar-30 07:07 286 0 gusting 3 13.9
2015-Mar-30 07:02 277 1 gusting 3 13.3
2015-Mar-30 06:57 284 12.8
2015-Mar-30 06:52 267 12.8
2015-Mar-30 06:47 259 3 gusting 4 12.8
2015-Mar-30 06:42 267 1 gusting 4 12.8
2015-Mar-30 06:37 269 4 gusting 4 13.3
2015-Mar-30 06:32 315 2 gusting 7 13.3
2015-Mar-30 06:27 311 6 gusting 8 13.3
2015-Mar-30 06:22 338 13.3
2015-Mar-30 06:17 350 3 gusting 6 12.8
2015-Mar-30 06:12 343 2 gusting 7 12.2
2015-Mar-30 06:07 338 5 gusting 6 12.2
2015-Mar-30 06:02 344 3 gusting 6 11.7
2015-Mar-30 05:57 319 2 gusting 6 11.7
2015-Mar-30 05:52 355 3 gusting 4 11.1
2015-Mar-30 05:47 355 11.1
2015-Mar-30 05:42 024 11.1
2015-Mar-30 05:37 024 11.1
2015-Mar-30 05:32 022 11.1
2015-Mar-30 05:27 017 11.1
2015-Mar-30 05:22 011 2 gusting 4 11.1
2015-Mar-30 05:17 355 4 gusting 6 11.7
2015-Mar-30 05:12 032 3 gusting 4 11.7
2015-Mar-30 05:07 016 4 gusting 5 11.7
2015-Mar-30 05:02 016 11.7
2015-Mar-30 04:57 355 5 gusting 6 11.7
2015-Mar-30 04:52 012 3 gusting 5 11.1
2015-Mar-30 04:47 023 11.1
2015-Mar-30 04:42 11.7
2015-Mar-30 04:37 005 4 gusting 5 11.7
2015-Mar-30 04:32 005 11.7
2015-Mar-30 04:27 005 1 gusting 3 11.7
2015-Mar-30 04:22 005 11.7
2015-Mar-30 04:17 005 11.7
2015-Mar-30 04:12 005 11.7
2015-Mar-30 04:07 005 12.2
2015-Mar-30 04:02 005 4 gusting 4 12.8
2015-Mar-30 03:57 005 12.8
2015-Mar-30 03:52 005 12.8
2015-Mar-30 03:47 005 12.8
2015-Mar-30 03:42 005 12.8
2015-Mar-30 03:37 005 12.2
2015-Mar-30 03:32 005 12.2
2015-Mar-30 03:27 135 12.8
2015-Mar-30 03:22 135 12.8
2015-Mar-30 03:17 135 12.8
2015-Mar-30 03:12 135 12.8
2015-Mar-30 03:07 135 12.8
2015-Mar-30 03:02 135 1 gusting 4 12.8
2015-Mar-30 02:57 132 2 gusting 2 12.8
2015-Mar-30 02:52 250 12.2
2015-Mar-30 02:47 250 2 gusting 4 12.8
2015-Mar-30 02:42 248 13.3
2015-Mar-30 02:37 248 13.9
2015-Mar-30 02:32 244 15.0
2015-Mar-30 02:27 244 15.0
2015-Mar-30 02:22 089 15.0
2015-Mar-30 02:17 089 15.0
2015-Mar-30 02:12 088 15.6
2015-Mar-30 02:07 089 0 gusting 2 15.6
2015-Mar-30 02:02 089 2 gusting 4 15.0
2015-Mar-30 01:57 123 15.0
2015-Mar-30 01:52 131 15.0
2015-Mar-30 01:47 131 14.4
2015-Mar-30 01:42 066 15.0
2015-Mar-30 01:37 042 14.4
2015-Mar-30 01:32 275 13.9
2015-Mar-30 01:27 275 13.3
2015-Mar-30 01:22 275 12.8
2015-Mar-30 01:17 262 1 gusting 2 12.8
2015-Mar-30 01:12 089 12.8
2015-Mar-30 01:07 050 13.3
2015-Mar-30 01:02 295 12.8
2015-Mar-30 00:57 296 1 gusting 4 12.8
2015-Mar-30 00:52 258 12.8
2015-Mar-30 00:47 258 2 gusting 4 12.8
2015-Mar-30 00:42 181 12.8
2015-Mar-30 00:37 181 12.8
2015-Mar-30 00:32 181 12.8
2015-Mar-30 00:27 181 12.8
2015-Mar-30 00:22 181 12.8
2015-Mar-30 00:17 181 12.8
2015-Mar-30 00:12 181 12.8
2015-Mar-30 00:07 181 12.8
2015-Mar-30 00:02 181 12.2
2015-Mar-29 23:57 186 12.8
2015-Mar-29 23:52 246 12.2
2015-Mar-29 23:47 250 3 gusting 5 12.8
2015-Mar-29 23:42 205 1 gusting 3 12.8
2015-Mar-29 23:37 158 12.8
2015-Mar-29 23:32 175 12.8
2015-Mar-29 23:27 151 0 gusting 3 12.8
2015-Mar-29 23:22 159 12.8
2015-Mar-29 23:17 159 12.2
2015-Mar-29 23:12 159 2 gusting 6 12.8
2015-Mar-29 23:07 166 4 gusting 4 12.2
2015-Mar-29 23:02 138 12.2
2015-Mar-29 22:57 178 12.8
2015-Mar-29 22:52 183 12.2
2015-Mar-29 22:47 186 12.2
2015-Mar-29 22:42 186 12.8
2015-Mar-29 22:37 186 12.8
2015-Mar-29 22:32 186 12.8
2015-Mar-29 22:27 186 12.8
2015-Mar-29 22:22 186 12.2
2015-Mar-29 22:17 186 12.2
2015-Mar-29 22:12 186 12.2
2015-Mar-29 22:07 186 12.2
2015-Mar-29 22:02 186 12.8
2015-Mar-29 21:57 186 12.8
2015-Mar-29 21:52 186 12.8
2015-Mar-29 21:47 200 1 gusting 3 12.8
2015-Mar-29 21:42 222 12.8
2015-Mar-29 21:37 222 12.8
2015-Mar-29 21:32 222 12.8
2015-Mar-29 21:27 202 1 gusting 3 12.8
2015-Mar-29 21:22 093 12.8
2015-Mar-29 21:17 191 1 gusting 3 12.8
2015-Mar-29 21:12 171 1 gusting 3 12.8
2015-Mar-29 21:07 195 3 gusting 4 12.8
2015-Mar-29 21:02 197 3 gusting 4 12.8
2015-Mar-29 20:57 220 1 gusting 4 12.2
2015-Mar-29 20:52 183 12.2
2015-Mar-29 20:47 181 12.2
2015-Mar-29 20:42 209 2 gusting 4 11.7
2015-Mar-29 20:37 245 11.7
2015-Mar-29 20:32 222 3 gusting 5 11.7
2015-Mar-29 20:22 209 1 gusting 5 11.7
2015-Mar-29 20:17 243 2 gusting 4 11.7
2015-Mar-29 20:12 152 11.7
2015-Mar-29 20:07 240 11.7
2015-Mar-29 20:02 159 11.7
2015-Mar-29 19:57 234 11.7
2015-Mar-29 19:52 200 11.7
2015-Mar-29 19:47 228 1 gusting 4 11.7
2015-Mar-29 19:42 227 2 gusting 5 11.7
2015-Mar-29 19:37 256 11.7
2015-Mar-29 19:32 244 11.7
2015-Mar-29 19:27 205 11.7
2015-Mar-29 19:22 215 0 gusting 3 11.7
2015-Mar-29 19:17 116 11.7
2015-Mar-29 19:12 198 3 gusting 5 11.7
2015-Mar-29 19:07 198 0 gusting 5 11.7
2015-Mar-29 19:02 213 2 gusting 5 11.7
2015-Mar-29 18:57 215 2 gusting 6 11.1
2015-Mar-29 18:52 248 11.1
2015-Mar-29 18:47 153 11.1
2015-Mar-29 18:42 268 11.1
2015-Mar-29 18:37 082 11.1
2015-Mar-29 18:32 069 1 gusting 3 11.1
2015-Mar-29 18:27 142 11.1
2015-Mar-29 18:22 127 1 gusting 2 11.1
2015-Mar-29 18:17 040 11.1
2015-Mar-29 18:12 054 1 gusting 6 11.1
2015-Mar-29 18:07 109 3 gusting 6 11.1
2015-Mar-29 18:02 120 4 gusting 5 11.1
2015-Mar-29 17:57 115 2 gusting 4 11.1
2015-Mar-29 17:52 108 1 gusting 3 11.1
2015-Mar-29 17:47 096 11.1
2015-Mar-29 17:42 098 1 gusting 6 11.1
2015-Mar-29 17:37 059 1 gusting 6 11.1
2015-Mar-29 17:32 111 11.1
2015-Mar-29 17:27 108 11.7
2015-Mar-29 17:22 116 11.7
2015-Mar-29 17:17 102 0 gusting 4 11.7
2015-Mar-29 17:12 116 1 gusting 3 11.7
2015-Mar-29 17:07 142 11.7
2015-Mar-29 17:02 098 11.7
2015-Mar-29 16:57 098 11.7
2015-Mar-29 16:52 116 11.7
2015-Mar-29 16:47 142 11.7
2015-Mar-29 16:42 101 12.2
2015-Mar-29 16:37 088 12.2
2015-Mar-29 16:32 112 12.2
2015-Mar-29 16:27 153 12.8
2015-Mar-29 16:22 085 4 gusting 5 12.8
2015-Mar-29 16:17 090 4 gusting 5 12.8
2015-Mar-29 16:12 088 4 gusting 4 12.8
2015-Mar-29 16:07 071 12.8
2015-Mar-29 16:02 105 1 gusting 5 12.8
2015-Mar-29 15:57 084 2 gusting 5 13.3
2015-Mar-29 15:52 111 2 gusting 6 13.9
2015-Mar-29 15:47 121 13.3
2015-Mar-29 15:42 083 6 gusting 6 13.3
2015-Mar-29 15:37 078 13.9
2015-Mar-29 15:32 084 2 gusting 6 13.9
2015-Mar-29 15:27 124 4 gusting 6 13.9
2015-Mar-29 15:22 117 0 gusting 6 13.9
2015-Mar-29 15:17 092 13.9
2015-Mar-29 15:12 160 13.3
2015-Mar-29 15:07 118 13.3
2015-Mar-29 15:02 109 3 gusting 6 13.3
2015-Mar-29 14:57 132 1 gusting 6 13.3
2015-Mar-29 14:52 079 4 gusting 6 13.9
2015-Mar-29 14:47 080 0 gusting 8 13.9
2015-Mar-29 14:42 061 13.3
2015-Mar-29 14:37 061 2 gusting 6 13.9
2015-Mar-29 14:32 048 0 gusting 6 14.4
2015-Mar-29 14:27 063 13.9
2015-Mar-29 14:22 122 2 gusting 6 13.9
2015-Mar-29 14:17 109 0 gusting 6 13.9
2015-Mar-29 14:12 055 3 gusting 6 13.9
2015-Mar-29 14:07 061 3 gusting 6 13.3
2015-Mar-29 14:02 076 4 gusting 7 12.8
2015-Mar-29 13:57 074 7 gusting 8 12.8
2015-Mar-29 13:52 076 6 gusting 8 13.3
2015-Mar-29 13:47 081 4 gusting 8 13.3
2015-Mar-29 13:42 057 6 gusting 8 13.3
2015-Mar-29 13:37 051 6 gusting 10 14.4
2015-Mar-29 13:32 051 2 gusting 7 14.4
2015-Mar-29 13:27 053 3 gusting 6 14.4
2015-Mar-29 13:22 071 4 gusting 7 14.4
2015-Mar-29 13:17 047 5 gusting 6 14.4
2015-Mar-29 13:12 039 4 gusting 6 14.4
2015-Mar-29 13:07 063 4 gusting 6 15.0
2015-Mar-29 13:02 058 6 gusting 6 15.0
2015-Mar-29 12:57 050 5 gusting 6 15.0
2015-Mar-29 12:52 060 4 gusting 6 15.0
2015-Mar-29 12:47 044 5 gusting 6 14.4
2015-Mar-29 12:42 063 3 gusting 6 14.4
2015-Mar-29 12:37 045 3 gusting 5 14.4
2015-Mar-29 12:32 065 1 gusting 6 13.9
2015-Mar-29 12:27 051 1 gusting 6 13.9
2015-Mar-29 12:22 053 3 gusting 5 13.3
2015-Mar-29 12:17 040 2 gusting 5 13.3
2015-Mar-29 12:12 047 3 gusting 4 13.3
2015-Mar-29 12:07 026 1 gusting 6 13.3
2015-Mar-29 12:02 056 3 gusting 5 13.3
2015-Mar-29 11:57 047 4 gusting 5 13.3
2015-Mar-29 11:52 037 2 gusting 4 12.8
2015-Mar-29 11:47 049 2 gusting 5 12.8
2015-Mar-29 11:42 050 4 gusting 6 13.3
2015-Mar-29 11:37 049 4 gusting 6 13.3
2015-Mar-29 11:32 081 4 gusting 6 13.9
2015-Mar-29 11:27 048 5 gusting 6 13.9
2015-Mar-29 11:22 055 5 gusting 7 13.9
2015-Mar-29 11:17 063 6 gusting 7 13.9
2015-Mar-29 11:12 044 2 gusting 6 13.9
2015-Mar-29 11:07 062 4 gusting 5 13.3
2015-Mar-29 11:02 052 1 gusting 5 13.3
2015-Mar-29 10:57 039 1 gusting 5 13.3
2015-Mar-29 10:52 043 2 gusting 5 13.3
2015-Mar-29 10:47 036 3 gusting 6 13.3
2015-Mar-29 10:42 055 2 gusting 6 12.8
2015-Mar-29 10:37 052 4 gusting 7 13.3
2015-Mar-29 10:32 059 7 gusting 7 12.8
2015-Mar-29 10:27 042 2 gusting 5 12.8
2015-Mar-29 10:22 067 3 gusting 6 12.8
2015-Mar-29 10:17 060 2 gusting 6 13.3
2015-Mar-29 10:12 055 0 gusting 6 12.8
2015-Mar-29 10:07 063 4 gusting 6 12.8
2015-Mar-29 10:02 065 2 gusting 6 12.8
2015-Mar-29 09:57 068 2 gusting 6 12.2
2015-Mar-29 09:52 065 2 gusting 6 12.8
2015-Mar-29 09:47 065 4 gusting 8 12.8
2015-Mar-29 09:42 061 6 gusting 7 13.3
2015-Mar-29 09:37 061 3 gusting 5 12.8
2015-Mar-29 09:32 039 2 gusting 4 12.8
2015-Mar-29 09:27 045 2 gusting 6 12.8
2015-Mar-29 09:22 066 2 gusting 6 12.8
2015-Mar-29 09:17 054 4 gusting 6 12.8
2015-Mar-29 09:12 060 1 gusting 6 12.8
2015-Mar-29 09:07 045 2 gusting 6 12.8
2015-Mar-29 09:02 050 5 gusting 6 12.8
2015-Mar-29 08:57 044 2 gusting 5 12.8
2015-Mar-29 08:52 064 12.8
2015-Mar-29 08:47 045 0 gusting 6 13.3
2015-Mar-29 08:42 079 2 gusting 7 13.3
2015-Mar-29 08:37 028 5 gusting 6 13.3
2015-Mar-29 08:32 015 1 gusting 4 12.8
2015-Mar-29 08:27 005 0 gusting 4 12.8
2015-Mar-29 08:22 028 0 gusting 5 12.8
2015-Mar-29 08:17 026 5 gusting 5 12.8
2015-Mar-29 08:12 032 1 gusting 5 12.8
2015-Mar-29 08:07 033 1 gusting 3 12.8
2015-Mar-29 08:02 344 12.8